createdAt,value
2024-05-09T00:00:43.975Z,8.14
2024-05-09T00:04:07.785Z,8.01
2024-05-09T00:07:10.918Z,7.93
2024-05-09T00:10:22.350Z,7.85
2024-05-09T00:13:32.103Z,7.85
2024-05-09T00:16:34.684Z,7.83
2024-05-09T00:19:37.675Z,7.76
2024-05-09T00:22:40.285Z,7.72
2024-05-09T00:25:43.811Z,7.69
2024-05-09T00:28:46.734Z,7.57
2024-05-09T00:31:49.792Z,7.44
2024-05-09T00:34:52.578Z,7.35
2024-05-09T00:37:55.743Z,7.26
2024-05-09T00:40:58.278Z,7.11
2024-05-09T00:44:01.376Z,7.06
2024-05-09T00:47:04.310Z,7.01
2024-05-09T00:50:12.737Z,6.93
2024-05-09T00:53:19.074Z,6.84
2024-05-09T00:56:22.445Z,6.84
2024-05-09T00:59:25.309Z,6.77
2024-05-09T01:02:31.217Z,6.72
2024-05-09T01:05:35.028Z,6.61
2024-05-09T01:08:38.942Z,6.52
2024-05-09T01:11:41.996Z,6.51
2024-05-09T01:14:45.150Z,6.40
2024-05-09T01:17:48.018Z,6.40
2024-05-09T01:20:51.382Z,6.31
2024-05-09T01:23:53.982Z,6.26
2024-05-09T01:26:56.890Z,6.26
2024-05-09T01:29:59.463Z,6.20
2024-05-09T01:33:02.689Z,6.19
2024-05-09T01:36:05.693Z,6.16
2024-05-09T01:39:08.748Z,6.16
2024-05-09T01:42:11.297Z,6.16
2024-05-09T01:45:14.283Z,6.08
2024-05-09T01:48:16.975Z,6.08
2024-05-09T01:51:20.188Z,6.06
2024-05-09T01:54:22.720Z,5.97
2024-05-09T01:57:25.805Z,5.94
2024-05-09T02:00:37.781Z,5.90
2024-05-09T02:03:47.195Z,5.82
2024-05-09T02:06:49.910Z,5.72
2024-05-09T02:09:55.783Z,5.67
2024-05-09T02:12:58.296Z,5.66
2024-05-09T02:16:01.286Z,5.65
2024-05-09T02:19:04.049Z,5.62
2024-05-09T02:22:07.168Z,5.52
2024-05-09T02:25:09.737Z,5.46
2024-05-09T02:28:12.793Z,5.44
2024-05-09T02:31:15.436Z,5.41
2024-05-09T02:34:18.544Z,5.34
2024-05-09T02:37:21.206Z,5.33
2024-05-09T02:40:33.234Z,5.26
2024-05-09T02:43:39.737Z,5.21
2024-05-09T02:46:42.749Z,5.24
2024-05-09T02:49:45.418Z,5.19
2024-05-09T02:52:48.561Z,5.07
2024-05-09T02:55:51.307Z,5.09
2024-05-09T02:58:54.389Z,5.04
2024-05-09T03:01:57.217Z,4.93
2024-05-09T03:05:00.930Z,4.87
2024-05-09T03:08:03.703Z,4.82
2024-05-09T03:11:06.963Z,4.68
2024-05-09T03:14:09.538Z,4.63
2024-05-09T03:17:12.570Z,4.31
2024-05-09T03:20:23.203Z,4.46
2024-05-09T03:23:28.315Z,4.51
2024-05-09T03:26:30.949Z,4.57
2024-05-09T03:29:34.182Z,4.54
2024-05-09T03:32:37.028Z,4.44
2024-05-09T03:35:40.251Z,4.44
2024-05-09T03:38:42.952Z,4.45
2024-05-09T03:41:46.003Z,4.47
2024-05-09T03:44:48.585Z,4.36
2024-05-09T03:47:51.955Z,4.37
2024-05-09T03:50:55.005Z,4.39
2024-05-09T03:53:58.463Z,4.40
2024-05-09T03:57:01.992Z,4.44
2024-05-09T04:00:11.893Z,4.44
2024-05-09T04:03:20.545Z,4.45
2024-05-09T04:06:24.873Z,4.48
2024-05-09T04:09:27.447Z,4.47
2024-05-09T04:12:30.776Z,4.51
2024-05-09T04:15:33.583Z,4.56
2024-05-09T04:18:37.108Z,4.58
2024-05-09T04:21:39.857Z,4.66
2024-05-09T04:24:43.041Z,4.68
2024-05-09T04:27:45.655Z,4.73
2024-05-09T04:30:48.768Z,4.80
2024-05-09T04:33:51.714Z,4.88
2024-05-09T04:36:54.876Z,4.92
2024-05-09T04:39:58.064Z,5.02
2024-05-09T04:43:01.524Z,5.12
2024-05-09T04:46:04.484Z,5.16
2024-05-09T04:49:07.825Z,5.34
2024-05-09T04:52:10.609Z,5.40
2024-05-09T04:55:13.802Z,5.53
2024-05-09T04:58:16.575Z,5.73
2024-05-09T05:01:19.872Z,5.82
2024-05-09T05:04:22.640Z,5.93
2024-05-09T05:07:25.702Z,6.14
2024-05-09T05:10:34.012Z,6.22
2024-05-09T05:13:41.595Z,6.43
2024-05-09T05:16:44.534Z,6.68
2024-05-09T05:19:47.892Z,6.89
2024-05-09T05:22:50.775Z,7.05
2024-05-09T05:25:54.522Z,7.25
2024-05-09T05:28:57.422Z,7.43
2024-05-09T05:32:00.783Z,7.69
2024-05-09T05:35:03.822Z,7.94
2024-05-09T05:38:08.424Z,8.09
2024-05-09T05:41:11.068Z,8.34
2024-05-09T05:44:16.084Z,8.60
2024-05-09T05:47:19.028Z,8.85
2024-05-09T05:50:27.929Z,9.15
2024-05-09T05:53:37.866Z,9.46
2024-05-09T05:56:41.098Z,9.90
2024-05-09T05:59:43.936Z,10.28
2024-05-09T06:02:47.664Z,10.73
2024-05-09T06:05:50.569Z,11.18
2024-05-09T06:08:54.457Z,11.57
2024-05-09T06:11:57.412Z,12.15
2024-05-09T06:15:01.077Z,12.70
2024-05-09T06:18:06.817Z,13.37
2024-05-09T06:21:10.341Z,13.78
2024-05-09T06:24:13.358Z,14.19
2024-05-09T06:27:16.415Z,14.70
2024-05-09T06:30:26.269Z,15.26
2024-05-09T06:33:38.177Z,15.89
2024-05-09T06:36:41.679Z,16.50
2024-05-09T06:39:46.405Z,16.72
2024-05-09T06:42:49.016Z,17.14
2024-05-09T06:45:54.747Z,17.40
2024-05-09T06:48:59.402Z,17.69
2024-05-09T06:52:02.580Z,18.23
2024-05-09T06:55:05.544Z,18.29
2024-05-09T06:58:11.828Z,18.46
2024-05-09T07:01:14.579Z,18.75
2024-05-09T07:04:18.034Z,19.02
2024-05-09T07:07:20.768Z,18.85
2024-05-09T07:10:29.032Z,18.42
2024-05-09T07:13:36.913Z,18.90
2024-05-09T07:16:40.342Z,19.18
2024-05-09T07:19:43.077Z,19.55
2024-05-09T07:22:46.240Z,19.84
2024-05-09T07:25:48.940Z,19.86
2024-05-09T07:28:52.052Z,20.26
2024-05-09T07:31:55.418Z,20.06
2024-05-09T07:34:58.597Z,20.17
2024-05-09T07:38:01.314Z,20.50
2024-05-09T07:41:04.597Z,20.56
2024-05-09T07:44:07.264Z,20.80
2024-05-09T07:48:27.492Z,20.94
2024-05-09T07:52:23.240Z,20.89
2024-05-09T07:54:00.680Z,21.30
2024-05-09T07:57:04.358Z,21.67
2024-05-09T08:00:11.630Z,21.74
2024-05-09T08:03:14.553Z,21.50
2024-05-09T08:06:17.960Z,21.62
2024-05-09T08:09:22.455Z,21.71
2024-05-09T08:12:25.909Z,21.66
2024-05-09T08:15:28.637Z,22.04
2024-05-09T08:18:33.013Z,21.93
2024-05-09T08:21:35.836Z,21.45
2024-05-09T08:24:39.117Z,21.31
2024-05-09T08:27:42.813Z,21.37
2024-05-09T08:30:46.617Z,21.74
2024-05-09T08:33:51.849Z,22.07
2024-05-09T08:36:57.538Z,22.53
2024-05-09T08:40:00.477Z,23.00
2024-05-09T08:43:08.248Z,22.79
2024-05-09T08:46:13.712Z,23.45
2024-05-09T08:49:17.282Z,22.97
2024-05-09T08:52:20.010Z,23.01
2024-05-09T08:55:23.029Z,23.39
2024-05-09T08:58:26.332Z,23.14
2024-05-09T09:01:31.797Z,23.24
2024-05-09T09:04:39.003Z,22.81
2024-05-09T09:07:48.562Z,22.90
2024-05-09T09:10:54.439Z,22.87
2024-05-09T09:13:57.787Z,22.77
2024-05-09T09:17:00.814Z,22.92
2024-05-09T09:20:04.527Z,23.09
2024-05-09T09:23:09.149Z,23.21
2024-05-09T09:26:16.918Z,23.38
2024-05-09T09:29:21.029Z,23.54
2024-05-09T09:32:28.736Z,23.57
2024-05-09T09:35:31.475Z,23.90
2024-05-09T09:38:37.940Z,24.04
2024-05-09T09:41:44.600Z,23.92
2024-05-09T09:44:54.634Z,24.27
2024-05-09T09:48:05.792Z,24.06
2024-05-09T09:51:09.602Z,23.43
2024-05-09T09:54:13.708Z,23.40
2024-05-09T09:57:16.902Z,23.42
2024-05-09T10:00:27.052Z,24.04
2024-05-09T10:03:35.520Z,24.54
2024-05-09T10:06:43.120Z,24.38
2024-05-09T10:09:46.638Z,24.15
2024-05-09T10:13:13.493Z,24.27
2024-05-09T10:16:22.412Z,24.05
2024-05-09T10:19:28.764Z,23.70
2024-05-09T10:22:33.306Z,24.21
2024-05-09T10:25:36.816Z,24.77
2024-05-09T10:28:45.308Z,24.45
2024-05-09T10:31:48.578Z,24.52
2024-05-09T10:35:07.989Z,24.24
2024-05-09T10:38:10.875Z,23.78
2024-05-09T10:41:14.194Z,24.11
2024-05-09T10:44:23.920Z,24.73
2024-05-09T10:47:27.428Z,25.24
2024-05-09T10:50:34.094Z,25.43
2024-05-09T10:53:42.802Z,25.81
2024-05-09T10:56:45.636Z,25.75
2024-05-09T10:59:51.927Z,25.91
2024-05-09T11:02:54.833Z,25.56
2024-05-09T11:05:58.508Z,25.27
2024-05-09T11:09:01.310Z,25.09
2024-05-09T11:12:05.530Z,24.97
2024-05-09T11:15:08.532Z,25.34
2024-05-09T11:18:24.752Z,25.92
2024-05-09T11:21:28.664Z,25.77
2024-05-09T11:24:32.838Z,25.42
2024-05-09T11:27:36.412Z,25.23
2024-05-09T11:30:39.647Z,25.59
2024-05-09T11:33:49.227Z,25.52
2024-05-09T11:36:53.166Z,25.72
2024-05-09T11:39:56.392Z,25.85
2024-05-09T11:42:59.958Z,26.28
2024-05-09T11:46:03.817Z,26.44
2024-05-09T11:49:07.916Z,26.65
2024-05-09T11:52:10.819Z,26.18
2024-05-09T11:55:14.549Z,25.41
2024-05-09T11:58:18.744Z,25.71
2024-05-09T12:01:25.305Z,25.84
2024-05-09T12:04:29.892Z,26.09
2024-05-09T12:07:33.184Z,26.38
2024-05-09T12:10:36.896Z,26.74
2024-05-09T12:13:40.523Z,25.84
2024-05-09T12:16:43.363Z,25.76
2024-05-09T12:19:46.697Z,25.68
2024-05-09T12:22:49.522Z,25.63
2024-05-09T12:25:52.849Z,25.67
2024-05-09T12:28:55.706Z,25.91
2024-05-09T12:31:59.006Z,25.49
2024-05-09T12:35:01.895Z,25.15
2024-05-09T12:38:05.355Z,25.13
2024-05-09T12:41:09.297Z,24.93
2024-05-09T12:44:12.774Z,25.15
2024-05-09T12:47:15.746Z,25.39
2024-05-09T12:50:28.781Z,25.74
2024-05-09T12:53:36.241Z,25.81
2024-05-09T12:56:39.433Z,25.77
2024-05-09T12:59:42.807Z,25.93
2024-05-09T13:02:45.922Z,25.65
2024-05-09T13:05:50.129Z,25.62
2024-05-09T13:08:53.284Z,25.97
2024-05-09T13:11:56.067Z,26.09
2024-05-09T13:14:59.227Z,26.00
2024-05-09T13:18:03.497Z,25.69
2024-05-09T13:21:07.117Z,25.74
2024-05-09T13:24:09.645Z,25.67
2024-05-09T13:27:12.809Z,25.53
2024-05-09T13:30:25.402Z,25.72
2024-05-09T13:33:33.516Z,25.71
2024-05-09T13:36:36.455Z,25.71
2024-05-09T13:39:40.359Z,25.94
2024-05-09T13:42:43.928Z,25.69
2024-05-09T13:45:48.165Z,25.36
2024-05-09T13:48:51.069Z,25.67
2024-05-09T13:51:54.398Z,25.68
2024-05-09T13:54:57.111Z,25.56
2024-05-09T13:58:00.756Z,25.45
2024-05-09T14:01:03.691Z,25.40
2024-05-09T14:04:10.122Z,25.71
2024-05-09T14:07:13.245Z,25.77
2024-05-09T14:10:23.222Z,25.41
2024-05-09T14:13:31.475Z,25.43
2024-05-09T14:16:36.736Z,25.32
2024-05-09T14:19:39.478Z,25.54
2024-05-09T14:22:42.709Z,25.81
2024-05-09T14:25:48.184Z,25.78
2024-05-09T14:28:53.536Z,25.55
2024-05-09T14:31:56.290Z,25.11
2024-05-09T14:34:59.431Z,25.22
2024-05-09T14:38:02.324Z,24.86
2024-05-09T14:41:09.670Z,24.77
2024-05-09T14:44:13.021Z,24.59
2024-05-09T14:47:18.765Z,24.68
2024-05-09T14:50:28.080Z,24.56
2024-05-09T14:53:38.547Z,24.60
2024-05-09T14:56:41.711Z,24.39
2024-05-09T14:59:44.745Z,24.55
2024-05-09T15:02:48.049Z,24.49
2024-05-09T15:05:51.944Z,24.56
2024-05-09T15:08:57.733Z,24.39
2024-05-09T15:12:01.181Z,24.50
2024-05-09T15:15:04.808Z,24.62
2024-05-09T15:18:07.986Z,24.44
2024-05-09T15:21:10.857Z,23.90
2024-05-09T15:24:13.993Z,23.91
2024-05-09T15:27:17.549Z,23.87
2024-05-09T15:30:29.798Z,23.65
2024-05-09T15:33:34.994Z,23.46
2024-05-09T15:36:39.783Z,23.79
2024-05-09T15:39:43.669Z,23.55
2024-05-09T15:42:47.231Z,23.62
2024-05-09T15:45:49.961Z,23.72
2024-05-09T15:48:53.233Z,23.82
2024-05-09T15:51:56.044Z,23.75
2024-05-09T15:54:59.212Z,23.68
2024-05-09T15:58:02.801Z,23.55
2024-05-09T16:01:06.736Z,23.61
2024-05-09T16:04:12.445Z,23.91
2024-05-09T16:07:15.649Z,23.91
2024-05-09T16:10:23.151Z,23.90
2024-05-09T16:13:29.335Z,23.57
2024-05-09T16:16:32.388Z,23.61
2024-05-09T16:19:35.626Z,23.42
2024-05-09T16:22:38.300Z,23.47
2024-05-09T16:25:46.462Z,23.55
2024-05-09T16:28:49.270Z,23.01
2024-05-09T16:31:52.456Z,23.00
2024-05-09T16:34:55.258Z,23.05
2024-05-09T16:37:58.588Z,23.02
2024-05-09T16:41:01.418Z,22.98
2024-05-09T16:44:04.626Z,22.91
2024-05-09T16:47:08.261Z,22.99
2024-05-09T16:50:12.929Z,22.96
2024-05-09T16:53:19.561Z,23.08
2024-05-09T16:56:26.563Z,23.14
2024-05-09T16:59:29.218Z,23.01
2024-05-09T17:02:32.698Z,22.88
2024-05-09T17:05:36.213Z,22.86
2024-05-09T17:08:41.354Z,22.77
2024-05-09T17:11:44.020Z,22.63
2024-05-09T17:14:47.291Z,22.53
2024-05-09T17:17:50.149Z,22.46
2024-05-09T17:20:53.307Z,22.35
2024-05-09T17:23:56.159Z,21.98
2024-05-09T17:27:00.643Z,21.82
2024-05-09T17:30:06.173Z,21.64
2024-05-09T17:33:11.225Z,21.45
2024-05-09T17:36:16.420Z,21.32
2024-05-09T17:39:19.606Z,21.18
2024-05-09T17:42:22.163Z,21.07
2024-05-09T17:45:25.383Z,20.90
2024-05-09T17:48:28.247Z,20.75
2024-05-09T17:51:31.833Z,20.51
2024-05-09T17:54:34.748Z,20.30
2024-05-09T17:57:38.059Z,20.17
2024-05-09T18:00:42.426Z,20.03
2024-05-09T18:03:46.659Z,19.79
2024-05-09T18:06:49.618Z,19.51
2024-05-09T18:09:52.844Z,19.24
2024-05-09T18:12:55.638Z,19.02
2024-05-09T18:15:59.166Z,18.42
2024-05-09T18:19:01.963Z,18.41
2024-05-09T18:22:05.713Z,18.10
2024-05-09T18:25:08.852Z,17.94
2024-05-09T18:28:12.645Z,17.61
2024-05-09T18:31:16.027Z,17.41
2024-05-09T18:34:19.700Z,17.24
2024-05-09T18:37:23.675Z,17.08
2024-05-09T18:40:33.318Z,16.89
2024-05-09T18:43:44.968Z,16.72
2024-05-09T18:46:53.146Z,16.64
2024-05-09T18:49:56.758Z,16.44
2024-05-09T18:53:00.247Z,16.26
2024-05-09T18:56:04.891Z,16.09
2024-05-09T18:59:09.655Z,15.91
2024-05-09T19:02:13.657Z,15.71
2024-05-09T19:05:21.608Z,15.54
2024-05-09T19:08:25.791Z,15.35
2024-05-09T19:11:30.415Z,15.17
2024-05-09T19:14:33.998Z,14.94
2024-05-09T19:17:38.664Z,14.72
2024-05-09T19:20:42.938Z,14.55
2024-05-09T19:23:52.080Z,14.44
2024-05-09T19:26:58.640Z,14.21
2024-05-09T19:30:03.222Z,14.11
2024-05-09T19:33:11.927Z,13.99
2024-05-09T19:36:20.598Z,13.81
2024-05-09T19:39:26.826Z,13.74
2024-05-09T19:42:35.136Z,13.69
2024-05-09T19:45:40.588Z,13.61
2024-05-09T19:48:45.604Z,13.52
2024-05-09T19:51:50.042Z,13.42
2024-05-09T19:54:54.974Z,13.31
2024-05-09T19:57:58.942Z,13.24
2024-05-09T20:01:04.062Z,13.11
2024-05-09T20:04:08.061Z,13.02
2024-05-09T20:07:14.005Z,12.93
2024-05-09T20:10:23.731Z,12.80
2024-05-09T20:13:34.452Z,12.67
2024-05-09T20:16:38.854Z,12.69
2024-05-09T20:19:47.790Z,12.60
2024-05-09T20:22:51.940Z,12.52
2024-05-09T20:25:57.267Z,12.40
2024-05-09T20:29:04.545Z,12.20
2024-05-09T20:32:09.203Z,12.01
2024-05-09T20:35:12.823Z,11.86
2024-05-09T20:38:17.542Z,11.69
2024-05-09T20:41:21.076Z,11.67
2024-05-09T20:44:25.089Z,11.60
2024-05-09T20:47:28.258Z,11.47
2024-05-09T20:50:38.351Z,11.34
2024-05-09T20:53:44.089Z,11.22
2024-05-09T20:56:47.547Z,11.09
2024-05-09T20:59:50.374Z,10.98
2024-05-09T21:02:53.548Z,10.94
2024-05-09T21:05:56.493Z,10.96
2024-05-09T21:08:59.663Z,11.00
2024-05-09T21:12:02.480Z,10.95
2024-05-09T21:15:06.124Z,10.81
2024-05-09T21:18:09.051Z,10.77
2024-05-09T21:21:12.538Z,10.69
2024-05-09T21:24:15.274Z,10.49
2024-05-09T21:27:19.401Z,10.45
2024-05-09T21:30:32.481Z,10.30
2024-05-09T21:33:43.667Z,10.24
2024-05-09T21:36:46.452Z,10.25
2024-05-09T21:39:49.633Z,10.26
2024-05-09T21:42:52.266Z,10.26
2024-05-09T21:45:55.376Z,10.21
2024-05-09T21:48:58.443Z,10.17
2024-05-09T21:52:01.565Z,10.11
2024-05-09T21:55:04.327Z,9.98
2024-05-09T21:58:07.467Z,9.90
2024-05-09T22:01:10.749Z,9.76
2024-05-09T22:04:14.122Z,9.70
2024-05-09T22:07:17.086Z,9.67
2024-05-09T22:10:26.236Z,9.73
2024-05-09T22:13:33.735Z,9.68
2024-05-09T22:16:41.140Z,9.71
2024-05-09T22:19:47.503Z,9.63
2024-05-09T22:22:50.814Z,9.52
2024-05-09T22:25:53.549Z,9.37
2024-05-09T22:28:56.580Z,9.39
2024-05-09T22:31:59.386Z,9.34
2024-05-09T22:35:02.834Z,9.31
2024-05-09T22:38:05.883Z,9.27
2024-05-09T22:41:09.677Z,9.23
2024-05-09T22:44:12.333Z,9.21
2024-05-09T22:47:15.399Z,9.22
2024-05-09T22:50:26.341Z,9.22
2024-05-09T22:53:30.251Z,9.20
2024-05-09T22:56:32.947Z,9.11
2024-05-09T22:59:35.938Z,9.01
2024-05-09T23:02:38.619Z,8.92
2024-05-09T23:05:41.739Z,8.85
2024-05-09T23:08:44.387Z,8.76
2024-05-09T23:11:47.521Z,8.72
2024-05-09T23:14:50.174Z,8.70
2024-05-09T23:17:53.520Z,8.63
2024-05-09T23:20:56.251Z,8.58
2024-05-09T23:23:59.289Z,8.55
2024-05-09T23:27:02.015Z,8.52
2024-05-09T23:30:07.662Z,8.41
2024-05-09T23:33:13.899Z,8.28
2024-05-09T23:36:18.072Z,8.27
2024-05-09T23:39:20.651Z,8.13
2024-05-09T23:42:23.658Z,8.32
2024-05-09T23:45:26.264Z,8.37
2024-05-09T23:48:29.453Z,8.40
2024-05-09T23:51:32.122Z,8.33
2024-05-09T23:54:35.415Z,8.37
2024-05-09T23:57:38.304Z,8.36
